sensor_id;sensor_type;location;lat;lon;timestamp;pressure;altitude;pressure_sealevel;temperature;humidity
74561;BME280;62979;55.720;37.606;2022-10-28T00:02:16;100405.06;;;6.99;64.56
74561;BME280;62979;55.720;37.606;2022-10-28T00:04:43;100393.78;;;6.97;64.44
74561;BME280;62979;55.720;37.606;2022-10-28T00:07:10;100399.00;;;6.95;64.57
74561;BME280;62979;55.720;37.606;2022-10-28T00:09:37;100404.19;;;6.92;64.64
74561;BME280;62979;55.720;37.606;2022-10-28T00:12:04;100391.22;;;6.95;64.57
74561;BME280;62979;55.720;37.606;2022-10-28T00:14:32;100399.88;;;7.02;64.49
74561;BME280;62979;55.720;37.606;2022-10-28T00:16:59;100399.88;;;6.99;64.41
74561;BME280;62979;55.720;37.606;2022-10-28T00:19:27;100393.81;;;7.04;64.17
74561;BME280;62979;55.720;37.606;2022-10-28T00:21:55;100399.03;;;7.03;64.36
74561;BME280;62979;55.720;37.606;2022-10-28T00:24:22;100401.63;;;7.03;64.26
74561;BME280;62979;55.720;37.606;2022-10-28T00:26:49;100387.75;;;6.98;64.11
74561;BME280;62979;55.720;37.606;2022-10-28T00:29:18;100405.06;;;7.02;64.03
74561;BME280;62979;55.720;37.606;2022-10-28T00:31:45;100401.63;;;6.95;64.28
74561;BME280;62979;55.720;37.606;2022-10-28T00:34:14;100395.56;;;6.98;64.33
74561;BME280;62979;55.720;37.606;2022-10-28T00:36:45;100390.34;;;6.98;64.21
74561;BME280;62979;55.720;37.606;2022-10-28T00:39:15;100386.00;;;6.91;64.40
74561;BME280;62979;55.720;37.606;2022-10-28T00:41:45;100396.38;;;6.88;64.47
74561;BME280;62979;55.720;37.606;2022-10-28T00:47:32;100389.47;;;6.94;64.31
74561;BME280;62979;55.720;37.606;2022-10-28T00:50:19;100392.06;;;6.96;64.52
74561;BME280;62979;55.720;37.606;2022-10-28T00:52:59;100392.91;;;6.95;64.40
74561;BME280;62979;55.720;37.606;2022-10-28T00:55:30;100393.81;;;7.01;64.08
74561;BME280;62979;55.720;37.606;2022-10-28T00:58:01;100393.81;;;7.03;64.07
74561;BME280;62979;55.720;37.606;2022-10-28T01:00:31;100386.03;;;7.03;64.02
74561;BME280;62979;55.720;37.606;2022-10-28T01:02:58;100390.34;;;7.01;64.08
74561;BME280;62979;55.720;37.606;2022-10-28T01:05:26;100397.28;;;7.06;63.62
74561;BME280;62979;55.720;37.606;2022-10-28T01:07:58;100390.34;;;7.12;63.84
74561;BME280;62979;55.720;37.606;2022-10-28T01:10:46;100386.00;;;7.09;63.70
74561;BME280;62979;55.720;37.606;2022-10-28T01:13:35;100393.81;;;7.07;63.89
74561;BME280;62979;55.720;37.606;2022-10-28T01:16:17;100392.97;;;7.10;63.85
74561;BME280;62979;55.720;37.606;2022-10-28T01:19:01;100385.13;;;7.12;64.04
74561;BME280;62979;55.720;37.606;2022-10-28T01:22:11;100395.56;;;7.15;63.62
74561;BME280;62979;55.720;37.606;2022-10-28T01:25:05;100392.06;;;7.14;63.47
74561;BME280;62979;55.720;37.606;2022-10-28T01:28:11;100395.56;;;7.13;63.56
74561;BME280;62979;55.720;37.606;2022-10-28T01:31:14;100396.41;;;7.09;63.67
74561;BME280;62979;55.720;37.606;2022-10-28T01:33:51;100388.63;;;7.12;63.53
74561;BME280;62979;55.720;37.606;2022-10-28T01:36:31;100387.75;;;7.13;63.71
74561;BME280;62979;55.720;37.606;2022-10-28T01:39:11;100389.50;;;7.17;63.45
74561;BME280;62979;55.720;37.606;2022-10-28T01:41:51;100384.28;;;7.20;63.50
74561;BME280;62979;55.720;37.606;2022-10-28T01:44:28;100380.81;;;7.21;63.45
74561;BME280;62979;55.720;37.606;2022-10-28T01:47:10;100379.09;;;7.17;63.39
74561;BME280;62979;55.720;37.606;2022-10-28T01:49:46;100367.81;;;7.15;63.36
74561;BME280;62979;55.720;37.606;2022-10-28T01:52:20;100376.50;;;7.17;63.27
74561;BME280;62979;55.720;37.606;2022-10-28T01:54:53;100380.84;;;7.20;63.35
74561;BME280;62979;55.720;37.606;2022-10-28T01:57:26;100376.50;;;7.17;63.33
74561;BME280;62979;55.720;37.606;2022-10-28T01:59:56;100379.94;;;7.19;63.32
74561;BME280;62979;55.720;37.606;2022-10-28T02:02:29;100373.88;;;7.20;63.32
74561;BME280;62979;55.720;37.606;2022-10-28T02:08:10;100373.03;;;7.27;62.94
74561;BME280;62979;55.720;37.606;2022-10-28T02:11:14;100384.28;;;7.31;62.93
74561;BME280;62979;55.720;37.606;2022-10-28T02:14:02;100387.78;;;7.32;62.76
74561;BME280;62979;55.720;37.606;2022-10-28T02:16:45;100392.09;;;7.34;62.55
74561;BME280;62979;55.720;37.606;2022-10-28T02:19:25;100382.56;;;7.35;62.55
74561;BME280;62979;55.720;37.606;2022-10-28T02:22:10;100392.94;;;7.36;62.57
74561;BME280;62979;55.720;37.606;2022-10-28T02:24:49;100388.63;;;7.31;62.71
74561;BME280;62979;55.720;37.606;2022-10-28T02:27:31;100390.38;;;7.32;62.76
74561;BME280;62979;55.720;37.606;2022-10-28T02:30:06;100376.50;;;7.20;62.98
74561;BME280;62979;55.720;37.606;2022-10-28T02:32:40;100363.47;;;7.06;63.39
74561;BME280;62979;55.720;37.606;2022-10-28T02:35:15;100374.75;;;7.21;63.31
74561;BME280;62979;55.720;37.606;2022-10-28T02:37:48;100388.63;;;7.23;63.56
74561;BME280;62979;55.720;37.606;2022-10-28T02:40:20;100376.47;;;7.23;63.55
74561;BME280;62979;55.720;37.606;2022-10-28T02:42:53;100380.84;;;7.24;63.88
74561;BME280;62979;55.720;37.606;2022-10-28T02:45:27;100373.00;;;7.26;63.89
74561;BME280;62979;55.720;37.606;2022-10-28T02:48:01;100379.09;;;7.23;64.23
74561;BME280;62979;55.720;37.606;2022-10-28T02:50:35;100377.34;;;7.22;64.19
74561;BME280;62979;55.720;37.606;2022-10-28T02:53:12;100380.84;;;7.20;64.29
74561;BME280;62979;55.720;37.606;2022-10-28T02:55:44;100379.97;;;7.18;64.46
74561;BME280;62979;55.720;37.606;2022-10-28T02:58:17;100385.16;;;7.22;64.39
74561;BME280;62979;55.720;37.606;2022-10-28T03:00:44;100384.28;;;7.14;64.47
74561;BME280;62979;55.720;37.606;2022-10-28T03:03:15;100384.28;;;7.14;64.51
74561;BME280;62979;55.720;37.606;2022-10-28T03:05:44;100387.75;;;7.22;64.61
74561;BME280;62979;55.720;37.606;2022-10-28T03:08:11;100389.50;;;7.20;64.46
74561;BME280;62979;55.720;37.606;2022-10-28T03:10:38;100386.00;;;7.21;64.47
74561;BME280;62979;55.720;37.606;2022-10-28T03:13:05;100380.81;;;7.21;64.47
74561;BME280;62979;55.720;37.606;2022-10-28T03:15:32;100388.63;;;7.21;64.55
74561;BME280;62979;55.720;37.606;2022-10-28T03:17:59;100387.75;;;7.22;64.57
74561;BME280;62979;55.720;37.606;2022-10-28T03:20:26;100390.38;;;7.27;64.56
74561;BME280;62979;55.720;37.606;2022-10-28T03:22:54;100392.94;;;7.28;64.52
74561;BME280;62979;55.720;37.606;2022-10-28T03:25:21;100386.00;;;7.29;64.32
74561;BME280;62979;55.720;37.606;2022-10-28T03:27:48;100382.56;;;7.28;64.50
74561;BME280;62979;55.720;37.606;2022-10-28T03:30:15;100382.56;;;7.25;64.71
74561;BME280;62979;55.720;37.606;2022-10-28T03:32:43;100388.63;;;7.29;65.09
74561;BME280;62979;55.720;37.606;2022-10-28T03:35:10;100387.75;;;7.30;65.04
74561;BME280;62979;55.720;37.606;2022-10-28T03:37:40;100388.63;;;7.31;65.00
74561;BME280;62979;55.720;37.606;2022-10-28T03:40:10;100379.94;;;7.28;65.33
74561;BME280;62979;55.720;37.606;2022-10-28T03:42:39;100375.63;;;7.27;65.59
74561;BME280;62979;55.720;37.606;2022-10-28T03:45:07;100372.16;;;7.25;65.68
74561;BME280;62979;55.720;37.606;2022-10-28T03:47:35;100364.34;;;7.22;66.10
74561;BME280;62979;55.720;37.606;2022-10-28T03:50:02;100360.03;;;7.24;66.13
74561;BME280;62979;55.720;37.606;2022-10-28T03:52:30;100373.88;;;7.23;66.06
74561;BME280;62979;55.720;37.606;2022-10-28T03:54:57;100372.16;;;7.25;65.84
74561;BME280;62979;55.720;37.606;2022-10-28T03:57:29;100366.09;;;7.20;65.90
74561;BME280;62979;55.720;37.606;2022-10-28T03:59:56;100377.38;;;7.27;65.93
74561;BME280;62979;55.720;37.606;2022-10-28T04:02:24;100367.81;;;7.26;65.85
74561;BME280;62979;55.720;37.606;2022-10-28T04:04:51;100360.00;;;7.31;66.06
74561;BME280;62979;55.720;37.606;2022-10-28T04:07:18;100374.75;;;7.35;65.68
74561;BME280;62979;55.720;37.606;2022-10-28T04:09:45;100373.88;;;7.39;65.29
74561;BME280;62979;55.720;37.606;2022-10-28T04:12:14;100349.59;;;7.31;65.41
74561;BME280;62979;55.720;37.606;2022-10-28T04:14:42;100350.47;;;7.23;65.48
74561;BME280;62979;55.720;37.606;2022-10-28T04:17:09;100342.69;;;7.22;65.66
74561;BME280;62979;55.720;37.606;2022-10-28T04:19:36;100360.88;;;7.22;65.69
74561;BME280;62979;55.720;37.606;2022-10-28T04:22:03;100354.78;;;7.21;65.76
74561;BME280;62979;55.720;37.606;2022-10-28T04:24:30;100362.63;;;7.27;65.68
74561;BME280;62979;55.720;37.606;2022-10-28T04:26:58;100357.41;;;7.26;65.71
74561;BME280;62979;55.720;37.606;2022-10-28T04:29:25;100360.03;;;7.24;65.67
74561;BME280;62979;55.720;37.606;2022-10-28T04:31:54;100362.59;;;7.26;65.76
74561;BME280;62979;55.720;37.606;2022-10-28T04:34:20;100363.47;;;7.23;65.67
74561;BME280;62979;55.720;37.606;2022-10-28T04:36:47;100362.63;;;7.23;65.61
74561;BME280;62979;55.720;37.606;2022-10-28T04:39:15;100358.28;;;7.20;65.73
74561;BME280;62979;55.720;37.606;2022-10-28T04:41:42;100354.81;;;7.12;66.02
74561;BME280;62979;55.720;37.606;2022-10-28T04:44:09;100347.00;;;7.15;66.01
74561;BME280;62979;55.720;37.606;2022-10-28T04:46:36;100353.06;;;7.20;65.95
74561;BME280;62979;55.720;37.606;2022-10-28T04:49:04;100323.59;;;7.03;65.93
74561;BME280;62979;55.720;37.606;2022-10-28T04:51:31;100346.13;;;7.19;65.77
74561;BME280;62979;55.720;37.606;2022-10-28T04:53:58;100365.22;;;7.31;65.79
74561;BME280;62979;55.720;37.606;2022-10-28T04:56:25;100362.63;;;7.32;65.63
74561;BME280;62979;55.720;37.606;2022-10-28T04:58:53;100361.75;;;7.35;65.50
74561;BME280;62979;55.720;37.606;2022-10-28T05:01:20;100361.75;;;7.35;65.58
74561;BME280;62979;55.720;37.606;2022-10-28T05:03:47;100366.06;;;7.36;65.66
74561;BME280;62979;55.720;37.606;2022-10-28T05:06:15;100363.47;;;7.33;65.83
74561;BME280;62979;55.720;37.606;2022-10-28T05:08:42;100370.41;;;7.31;65.93
74561;BME280;62979;55.720;37.606;2022-10-28T05:11:09;100356.53;;;7.35;65.98
74561;BME280;62979;55.720;37.606;2022-10-28T05:13:36;100344.38;;;7.34;65.80
74561;BME280;62979;55.720;37.606;2022-10-28T05:16:03;100356.53;;;7.42;65.79
74561;BME280;62979;55.720;37.606;2022-10-28T05:18:31;100344.41;;;7.41;65.86
74561;BME280;62979;55.720;37.606;2022-10-28T05:20:58;100346.97;;;7.50;66.24
74561;BME280;62979;55.720;37.606;2022-10-28T05:23:26;100350.47;;;7.51;66.21
74561;BME280;62979;55.720;37.606;2022-10-28T05:25:53;100351.31;;;7.47;66.79
74561;BME280;62979;55.720;37.606;2022-10-28T05:28:20;100344.38;;;7.49;66.86
74561;BME280;62979;55.720;37.606;2022-10-28T05:30:47;100352.19;;;7.57;66.71
74561;BME280;62979;55.720;37.606;2022-10-28T05:33:14;100353.91;;;7.62;66.55
74561;BME280;62979;55.720;37.606;2022-10-28T05:35:41;100354.75;;;7.63;66.46
74561;BME280;62979;55.720;37.606;2022-10-28T05:38:08;100359.13;;;7.52;66.46
74561;BME280;62979;55.720;37.606;2022-10-28T05:40:37;100368.69;;;7.51;66.92
74561;BME280;62979;55.720;37.606;2022-10-28T05:43:04;100358.25;;;7.54;66.77
74561;BME280;62979;55.720;37.606;2022-10-28T05:45:31;100359.09;;;7.58;66.56
74561;BME280;62979;55.720;37.606;2022-10-28T05:47:58;100360.84;;;7.60;66.48
74561;BME280;62979;55.720;37.606;2022-10-28T05:50:25;100359.09;;;7.62;66.56
74561;BME280;62979;55.720;37.606;2022-10-28T05:52:53;100354.78;;;7.60;66.49
74561;BME280;62979;55.720;37.606;2022-10-28T05:55:23;100376.44;;;7.72;66.73
74561;BME280;62979;55.720;37.606;2022-10-28T05:57:54;100371.25;;;7.71;66.55
74561;BME280;62979;55.720;37.606;2022-10-28T06:00:23;100356.50;;;7.71;66.56
74561;BME280;62979;55.720;37.606;2022-10-28T06:02:51;100356.47;;;7.78;66.94
74561;BME280;62979;55.720;37.606;2022-10-28T06:05:18;100354.72;;;7.81;67.18
74561;BME280;62979;55.720;37.606;2022-10-28T06:07:45;100351.25;;;7.84;67.16
74561;BME280;62979;55.720;37.606;2022-10-28T06:10:12;100350.38;;;7.83;67.38
74561;BME280;62979;55.720;37.606;2022-10-28T06:12:39;100350.38;;;7.92;68.01
74561;BME280;62979;55.720;37.606;2022-10-28T06:15:09;100344.25;;;7.98;68.03
74561;BME280;62979;55.720;37.606;2022-10-28T06:17:36;100349.47;;;8.03;67.78
74561;BME280;62979;55.720;37.606;2022-10-28T06:20:04;100351.19;;;8.04;68.14
74561;BME280;62979;55.720;37.606;2022-10-28T06:22:32;100352.94;;;8.05;68.17
74561;BME280;62979;55.720;37.606;2022-10-28T06:24:59;100343.34;;;8.10;68.02
74561;BME280;62979;55.720;37.606;2022-10-28T06:27:26;100361.56;;;8.11;67.94
74561;BME280;62979;55.720;37.606;2022-10-28T06:29:53;100352.03;;;8.06;68.12
74561;BME280;62979;55.720;37.606;2022-10-28T06:32:21;100353.78;;;8.10;68.30
74561;BME280;62979;55.720;37.606;2022-10-28T06:34:48;100347.69;;;8.08;68.50
74561;BME280;62979;55.720;37.606;2022-10-28T06:37:15;100340.75;;;8.08;68.37
74561;BME280;62979;55.720;37.606;2022-10-28T06:39:42;100347.69;;;8.11;68.29
74561;BME280;62979;55.720;37.606;2022-10-28T06:42:10;100347.69;;;8.06;68.42
74561;BME280;62979;55.720;37.606;2022-10-28T06:44:37;100348.59;;;8.02;68.69
74561;BME280;62979;55.720;37.606;2022-10-28T06:47:04;100352.09;;;7.90;69.12
74561;BME280;62979;55.720;37.606;2022-10-28T06:49:32;100350.38;;;7.88;69.20
74561;BME280;62979;55.720;37.606;2022-10-28T06:51:59;100345.19;;;7.74;69.85
74561;BME280;62979;55.720;37.606;2022-10-28T06:54:26;100338.25;;;7.71;70.18
74561;BME280;62979;55.720;37.606;2022-10-28T06:56:53;100333.03;;;7.76;70.07
74561;BME280;62979;55.720;37.606;2022-10-28T06:59:20;100333.03;;;7.84;69.98
74561;BME280;62979;55.720;37.606;2022-10-28T07:01:47;100336.50;;;7.81;69.80
74561;BME280;62979;55.720;37.606;2022-10-28T07:04:14;100327.81;;;7.79;69.94
74561;BME280;62979;55.720;37.606;2022-10-28T07:06:42;100329.59;;;7.69;69.99
74561;BME280;62979;55.720;37.606;2022-10-28T07:09:12;100340.88;;;7.71;70.03
74561;BME280;62979;55.720;37.606;2022-10-28T07:11:40;100317.47;;;7.59;70.38
74561;BME280;62979;55.720;37.606;2022-10-28T07:14:09;100337.41;;;7.76;70.44
74561;BME280;62979;55.720;37.606;2022-10-28T07:16:36;100333.91;;;7.81;70.53
74561;BME280;62979;55.720;37.606;2022-10-28T07:19:03;100326.94;;;7.88;70.28
74561;BME280;62979;55.720;37.606;2022-10-28T07:21:30;100323.44;;;7.95;70.17
74561;BME280;62979;55.720;37.606;2022-10-28T07:23:58;100327.72;;;8.04;69.91
74561;BME280;62979;55.720;37.606;2022-10-28T07:26:26;100321.66;;;8.08;69.71
74561;BME280;62979;55.720;37.606;2022-10-28T07:28:53;100329.44;;;8.11;69.67
74561;BME280;62979;55.720;37.606;2022-10-28T07:31:20;100328.56;;;8.13;69.57
74561;BME280;62979;55.720;37.606;2022-10-28T07:33:50;100322.44;;;8.21;69.48
74561;BME280;62979;55.720;37.606;2022-10-28T07:36:18;100327.66;;;8.19;69.39
74561;BME280;62979;55.720;37.606;2022-10-28T07:38:47;100325.94;;;8.23;69.41
74561;BME280;62979;55.720;37.606;2022-10-28T07:41:18;100329.41;;;8.25;68.94
74561;BME280;62979;55.720;37.606;2022-10-28T07:43:46;100321.56;;;8.25;69.19
74561;BME280;62979;55.720;37.606;2022-10-28T07:46:13;100321.53;;;8.31;69.00
74561;BME280;62979;55.720;37.606;2022-10-28T07:48:40;100332.78;;;8.36;68.90
74561;BME280;62979;55.720;37.606;2022-10-28T07:51:09;100338.88;;;8.44;68.54
74561;BME280;62979;55.720;37.606;2022-10-28T07:53:38;100326.66;;;8.52;68.49
74561;BME280;62979;55.720;37.606;2022-10-28T07:56:07;100326.59;;;8.65;68.20
74561;BME280;62979;55.720;37.606;2022-10-28T07:58:39;100300.53;;;8.60;68.04
74561;BME280;62979;55.720;37.606;2022-10-28T08:01:08;100329.06;;;8.80;68.15
74561;BME280;62979;55.720;37.606;2022-10-28T08:03:37;100317.78;;;8.81;67.65
74561;BME280;62979;55.720;37.606;2022-10-28T08:06:07;100322.94;;;8.87;67.84
74561;BME280;62979;55.720;37.606;2022-10-28T08:08:35;100340.38;;;8.85;67.62
74561;BME280;62979;55.720;37.606;2022-10-28T08:11:10;100322.19;;;8.70;67.86
74561;BME280;62979;55.720;37.606;2022-10-28T08:13:38;100326.47;;;8.80;67.83
74561;BME280;62979;55.720;37.606;2022-10-28T08:16:06;100321.22;;;8.86;67.37
74561;BME280;62979;55.720;37.606;2022-10-28T08:18:34;100313.38;;;8.91;67.16
74561;BME280;62979;55.720;37.606;2022-10-28T08:21:03;100321.94;;;9.04;67.37
74561;BME280;62979;55.720;37.606;2022-10-28T08:23:32;100321.06;;;9.06;67.44
74561;BME280;62979;55.720;37.606;2022-10-28T08:25:59;100321.03;;;9.11;66.83
74561;BME280;62979;55.720;37.606;2022-10-28T08:28:27;100321.91;;;9.10;66.77
74561;BME280;62979;55.720;37.606;2022-10-28T08:31:00;100330.56;;;9.13;66.83
74561;BME280;62979;55.720;37.606;2022-10-28T08:33:30;100324.53;;;9.08;67.18
74561;BME280;62979;55.720;37.606;2022-10-28T08:35:57;100329.69;;;9.16;67.00
74561;BME280;62979;55.720;37.606;2022-10-28T08:38:24;100327.03;;;9.20;66.63
74561;BME280;62979;55.720;37.606;2022-10-28T08:40:57;100329.53;;;9.34;66.15
74561;BME280;62979;55.720;37.606;2022-10-28T08:43:44;100326.88;;;9.36;66.09
74561;BME280;62979;55.720;37.606;2022-10-28T08:46:29;100323.41;;;9.37;66.00
74561;BME280;62979;55.720;37.606;2022-10-28T08:49:15;100306.00;;;9.36;65.96
74561;BME280;62979;55.720;37.606;2022-10-28T08:51:50;100321.44;;;9.59;65.54
74561;BME280;62979;55.720;37.606;2022-10-28T08:54:26;100313.59;;;9.62;65.42
74561;BME280;62979;55.720;37.606;2022-10-28T08:57:02;100315.28;;;9.66;65.26
74561;BME280;62979;55.720;37.606;2022-10-28T08:59:36;100315.91;;;9.86;65.07
74561;BME280;62979;55.720;37.606;2022-10-28T09:02:18;100307.72;;;10.17;64.13
74561;BME280;62979;55.720;37.606;2022-10-28T09:04:51;100291.06;;;10.24;63.52
74561;BME280;62979;55.720;37.606;2022-10-28T09:07:24;100298.78;;;10.34;63.60
74561;BME280;62979;55.720;37.606;2022-10-28T09:09:52;100304.13;;;10.24;63.41
74561;BME280;62979;55.720;37.606;2022-10-28T09:12:30;100290.81;;;10.44;63.26
74561;BME280;62979;55.720;37.606;2022-10-28T09:15:13;100294.81;;;10.68;62.63
74561;BME280;62979;55.720;37.606;2022-10-28T09:17:53;100280.50;;;10.91;62.06
74561;BME280;62979;55.720;37.606;2022-10-28T09:20:29;100280.66;;;10.82;61.97
74561;BME280;62979;55.720;37.606;2022-10-28T09:23:16;100277.91;;;10.89;62.07
74561;BME280;62979;55.720;37.606;2022-10-28T09:25:58;100275.41;;;10.82;61.86
74561;BME280;62979;55.720;37.606;2022-10-28T09:28:46;100271.97;;;10.80;61.99
74561;BME280;62979;55.720;37.606;2022-10-28T09:31:27;100263.13;;;10.87;62.37
74561;BME280;62979;55.720;37.606;2022-10-28T09:34:12;100260.91;;;11.15;61.23
74561;BME280;62979;55.720;37.606;2022-10-28T09:36:50;100268.88;;;11.55;60.20
74561;BME280;62979;55.720;37.606;2022-10-28T09:39:23;100267.56;;;11.78;59.66
74561;BME280;62979;55.720;37.606;2022-10-28T09:41:57;100264.59;;;11.96;59.05
74561;BME280;62979;55.720;37.606;2022-10-28T09:44:32;100258.88;;;12.19;57.76
74561;BME280;62979;55.720;37.606;2022-10-28T09:47:13;100257.19;;;12.15;58.03
74561;BME280;62979;55.720;37.606;2022-10-28T09:49:46;100246.81;;;12.11;57.88
74561;BME280;62979;55.720;37.606;2022-10-28T09:52:18;100246.41;;;12.29;58.04
74561;BME280;62979;55.720;37.606;2022-10-28T09:54:51;100242.47;;;12.49;56.94
74561;BME280;62979;55.720;37.606;2022-10-28T09:57:21;100247.59;;;12.53;56.87
74561;BME280;62979;55.720;37.606;2022-10-28T09:59:57;100250.84;;;12.63;56.97
74561;BME280;62979;55.720;37.606;2022-10-28T10:02:27;100242.81;;;12.71;56.54
74561;BME280;62979;55.720;37.606;2022-10-28T10:04:59;100239.84;;;12.84;56.10
74561;BME280;62979;55.720;37.606;2022-10-28T10:07:32;100237.94;;;12.91;55.78
74561;BME280;62979;55.720;37.606;2022-10-28T10:10:05;100234.13;;;12.69;56.17
74561;BME280;62979;55.720;37.606;2022-10-28T10:12:38;100232.72;;;12.54;56.49
74561;BME280;62979;55.720;37.606;2022-10-28T10:15:12;100239.78;;;12.50;56.80
74561;BME280;62979;55.720;37.606;2022-10-28T10:17:46;100232.47;;;12.27;57.28
74561;BME280;62979;55.720;37.606;2022-10-28T10:20:19;100230.16;;;12.12;58.03
74561;BME280;62979;55.720;37.606;2022-10-28T10:22:48;100208.03;;;11.85;58.57
74561;BME280;62979;55.720;37.606;2022-10-28T10:25:24;100236.13;;;11.78;58.97
74561;BME280;62979;55.720;37.606;2022-10-28T10:27:56;100216.53;;;11.54;59.81
74561;BME280;62979;55.720;37.606;2022-10-28T10:30:29;100236.66;;;11.50;60.02
74561;BME280;62979;55.720;37.606;2022-10-28T10:32:59;100237.56;;;11.49;59.89
74561;BME280;62979;55.720;37.606;2022-10-28T10:35:30;100233.19;;;11.51;60.04
74561;BME280;62979;55.720;37.606;2022-10-28T10:38:01;100219.63;;;11.29;60.62
74561;BME280;62979;55.720;37.606;2022-10-28T10:40:32;100221.34;;;11.30;60.94
74561;BME280;62979;55.720;37.606;2022-10-28T10:43:19;100215.09;;;11.38;60.73
74561;BME280;62979;55.720;37.606;2022-10-28T10:45:59;100202.19;;;11.28;60.81
74561;BME280;62979;55.720;37.606;2022-10-28T10:48:30;100174.47;;;11.17;60.73
74561;BME280;62979;55.720;37.606;2022-10-28T10:51:06;100208.84;;;11.45;60.63
74561;BME280;62979;55.720;37.606;2022-10-28T10:53:38;100205.63;;;11.30;60.81
74561;BME280;62979;55.720;37.606;2022-10-28T10:56:07;100203.28;;;11.17;61.15
74561;BME280;62979;55.720;37.606;2022-10-28T10:58:46;100199.84;;;11.14;61.42
74561;BME280;62979;55.720;37.606;2022-10-28T11:01:19;100206.94;;;11.06;61.64
74561;BME280;62979;55.720;37.606;2022-10-28T11:03:52;100209.72;;;10.97;62.00
74561;BME280;62979;55.720;37.606;2022-10-28T11:06:26;100199.59;;;10.79;62.18
74561;BME280;62979;55.720;37.606;2022-10-28T11:08:57;100203.06;;;10.79;62.55
74561;BME280;62979;55.720;37.606;2022-10-28T11:11:33;100199.47;;;10.85;62.63
74561;BME280;62979;55.720;37.606;2022-10-28T11:14:04;100191.63;;;10.85;62.85
74561;BME280;62979;55.720;37.606;2022-10-28T11:16:49;100191.69;;;10.82;62.88
74561;BME280;62979;55.720;37.606;2022-10-28T11:19:20;100183.91;;;10.77;62.96
74561;BME280;62979;55.720;37.606;2022-10-28T11:22:05;100182.91;;;10.86;62.77
74561;BME280;62979;55.720;37.606;2022-10-28T11:25:09;100178.38;;;10.94;62.86
74561;BME280;62979;55.720;37.606;2022-10-28T11:27:59;100176.75;;;10.88;62.89
74561;BME280;62979;55.720;37.606;2022-10-28T11:30:46;100173.06;;;10.99;62.90
74561;BME280;62979;55.720;37.606;2022-10-28T11:33:29;100177.28;;;11.07;62.76
74561;BME280;62979;55.720;37.606;2022-10-28T11:36:10;100171.16;;;11.07;62.69
74561;BME280;62979;55.720;37.606;2022-10-28T11:39:11;100174.69;;;11.07;62.64
74561;BME280;62979;55.720;37.606;2022-10-28T11:41:55;100171.84;;;11.17;62.54
74561;BME280;62979;55.720;37.606;2022-10-28T11:44:40;100184.91;;;11.20;62.48
74561;BME280;62979;55.720;37.606;2022-10-28T11:47:28;100187.03;;;10.99;62.76
74561;BME280;62979;55.720;37.606;2022-10-28T11:50:25;100182.06;;;10.84;63.52
74561;BME280;62979;55.720;37.606;2022-10-28T11:53:41;100183.06;;;10.77;63.63
74561;BME280;62979;55.720;37.606;2022-10-28T11:56:24;100176.97;;;10.76;63.55
74561;BME280;62979;55.720;37.606;2022-10-28T11:59:15;100161.22;;;10.78;63.57
74561;BME280;62979;55.720;37.606;2022-10-28T12:02:08;100170.81;;;10.80;63.59
74561;BME280;62979;55.720;37.606;2022-10-28T12:04:59;100162.06;;;10.80;63.79
74561;BME280;62979;55.720;37.606;2022-10-28T12:07:55;100161.13;;;10.85;63.84
74561;BME280;62979;55.720;37.606;2022-10-28T12:10:50;100158.69;;;10.75;63.98
74561;BME280;62979;55.720;37.606;2022-10-28T12:13:35;100157.81;;;10.74;64.25
74561;BME280;62979;55.720;37.606;2022-10-28T12:16:12;100156.00;;;10.78;64.23
74561;BME280;62979;55.720;37.606;2022-10-28T12:18:51;100161.34;;;10.71;64.42
74561;BME280;62979;55.720;37.606;2022-10-28T12:21:27;100151.59;;;10.81;64.20
74561;BME280;62979;55.720;37.606;2022-10-28T12:23:58;100156.00;;;10.78;64.10
74561;BME280;62979;55.720;37.606;2022-10-28T12:26:33;100150.78;;;10.78;64.29
74561;BME280;62979;55.720;37.606;2022-10-28T12:29:12;100143.81;;;10.77;64.05
74561;BME280;62979;55.720;37.606;2022-10-28T12:31:46;100150.91;;;10.70;64.31
74561;BME280;62979;55.720;37.606;2022-10-28T12:34:23;100148.47;;;10.61;64.70
74561;BME280;62979;55.720;37.606;2022-10-28T12:37:01;100153.72;;;10.59;64.63
74561;BME280;62979;55.720;37.606;2022-10-28T12:39:34;100149.22;;;10.67;64.74
74561;BME280;62979;55.720;37.606;2022-10-28T12:42:11;100133.09;;;10.41;64.93
74561;BME280;62979;55.720;37.606;2022-10-28T12:44:46;100146.06;;;10.48;65.28
74561;BME280;62979;55.720;37.606;2022-10-28T12:47:18;100153.81;;;10.53;65.14
74561;BME280;62979;55.720;37.606;2022-10-28T12:49:59;100139.94;;;10.51;65.28
74561;BME280;62979;55.720;37.606;2022-10-28T12:52:36;100140.91;;;10.44;65.41
74561;BME280;62979;55.720;37.606;2022-10-28T12:55:21;100147.78;;;10.49;65.46
74561;BME280;62979;55.720;37.606;2022-10-28T12:58:00;100143.53;;;10.44;65.65
74561;BME280;62979;55.720;37.606;2022-10-28T13:00:35;100148.72;;;10.45;65.66
74561;BME280;62979;55.720;37.606;2022-10-28T13:03:11;100148.66;;;10.50;65.45
74561;BME280;62979;55.720;37.606;2022-10-28T13:05:42;100149.50;;;10.52;65.47
74561;BME280;62979;55.720;37.606;2022-10-28T13:08:29;100141.59;;;10.55;65.60
74561;BME280;62979;55.720;37.606;2022-10-28T13:11:31;100145.13;;;10.53;65.60
74561;BME280;62979;55.720;37.606;2022-10-28T13:14:26;100140.00;;;10.46;65.74
74561;BME280;62979;55.720;37.606;2022-10-28T13:17:20;100140.81;;;10.50;65.77
74561;BME280;62979;55.720;37.606;2022-10-28T13:20:05;100135.66;;;10.45;65.98
74561;BME280;62979;55.720;37.606;2022-10-28T13:22:53;100133.03;;;10.45;65.98
74561;BME280;62979;55.720;37.606;2022-10-28T13:25:43;100139.09;;;10.49;65.95
74561;BME280;62979;55.720;37.606;2022-10-28T13:28:25;100129.47;;;10.51;65.95